Time;durP1;ratioP1;P1;durP2;ratioP2;P2;SDS_P1;SDS_P2;PMS_P1;PMS_P2;Temp;Humidity;BMP_temperature;BMP_pressure;BME280_temperature;BME280_humidity;BME280_pressure;Samples;Min_cycle;Max_cycle;Signal;HPM_P1;HPM_P2
2023/04/26 00:01:56;;;;;;;1999.90;999.90;;;5.90;99.90;;;;;;4896340;29;20494;-73
2023/04/26 00:04:22;;;;;;;1999.90;999.90;;;4.40;99.90;;;;;;4897255;29;20059;-73
2023/04/26 00:06:48;;;;;;;1999.90;999.90;;;4.50;99.90;;;;;;4895739;29;20048;-74
2023/04/26 00:09:14;;;;;;;1999.90;999.90;;;5.70;99.90;;;;;;4896742;29;20402;-73
2023/04/26 00:11:40;;;;;;;1999.90;999.90;;;4.60;99.90;;;;;;4897070;29;20516;-73
2023/04/26 00:14:06;;;;;;;1999.90;999.90;;;4.50;99.90;;;;;;4895566;29;20068;-73
2023/04/26 00:16:31;;;;;;;1999.90;999.90;;;6.10;99.90;;;;;;4896822;29;20048;-73
2023/04/26 00:18:57;;;;;;;1999.90;999.90;;;3.60;99.90;;;;;;4896155;29;20044;-73
2023/04/26 00:21:23;;;;;;;1999.90;999.90;;;5.30;99.90;;;;;;4895839;29;20080;-73
2023/04/26 00:23:49;;;;;;;1999.90;999.90;;;4.70;1.00;;;;;;4895616;29;20489;-73
2023/04/26 00:26:14;;;;;;;1999.90;999.90;;;5.00;1.00;;;;;;4880400;29;20403;-73
2023/04/26 00:28:40;;;;;;;1999.90;999.90;;;4.90;48.40;;;;;;4878206;29;20132;-73
2023/04/26 00:31:06;;;;;;;1999.90;999.90;;;5.40;86.60;;;;;;4877939;29;20085;-73
2023/04/26 00:33:32;;;;;;;1999.90;999.90;;;6.80;1.00;;;;;;4878124;29;20379;-73
2023/04/26 00:35:57;;;;;;;1999.90;999.90;;;3.90;1.00;;;;;;4894568;29;20048;-73
2023/04/26 00:38:23;;;;;;;1999.90;999.90;;;5.80;1.00;;;;;;4896377;29;20044;-73
2023/04/26 00:40:49;;;;;;;1999.90;999.90;;;4.70;1.00;;;;;;4899956;29;20063;-73
2023/04/26 00:43:14;;;;;;;1999.90;999.90;;;6.10;1.00;;;;;;4899935;29;20112;-73
2023/04/26 00:45:40;;;;;;;1999.90;999.90;;;4.70;1.00;;;;;;4900347;29;20080;-75
2023/04/26 00:48:06;;;;;;;1999.90;999.90;;;4.80;1.00;;;;;;4899428;29;20060;-73
2023/04/26 00:50:32;;;;;;;1999.90;999.90;;;4.60;1.00;;;;;;4900008;29;20064;-73
2023/04/26 00:52:59;;;;;;;1999.90;999.90;;;5.90;1.00;;;;;;4898578;29;20494;-73
2023/04/26 00:55:26;;;;;;;1999.90;999.90;;;4.90;99.90;;;;;;4900138;29;20406;-73
2023/04/26 00:57:51;;;;;;;1999.90;999.90;;;3.30;99.90;;;;;;4898380;29;20099;-73
2023/04/26 01:00:17;;;;;;;1999.90;999.90;;;4.50;99.90;;;;;;4900026;29;20562;-73
2023/04/26 01:02:43;;;;;;;1999.90;999.90;;;4.50;99.90;;;;;;4899493;29;20044;-74
2023/04/26 01:05:09;;;;;;;1999.90;999.90;;;5.30;99.90;;;;;;4899720;29;20087;-74
2023/04/26 01:07:37;;;;;;;1999.90;999.90;;;5.80;99.90;;;;;;4898983;29;20044;-75
2023/04/26 01:10:04;;;;;;;1999.90;999.90;;;6.60;99.90;;;;;;4898343;29;20137;-73
2023/04/26 01:12:31;;;;;;;1999.90;999.90;;;4.40;99.90;;;;;;4898718;29;20048;-72
2023/04/26 01:14:58;;;;;;;1999.90;999.90;;;5.30;99.90;;;;;;4899144;29;20061;-73
2023/04/26 01:17:24;;;;;;;1999.90;999.90;;;4.80;99.90;;;;;;4898614;29;20108;-73
2023/04/26 01:19:50;;;;;;;1999.90;999.90;;;4.30;99.90;;;;;;4899150;29;20276;-76
2023/04/26 01:22:17;;;;;;;1999.90;999.90;;;4.70;99.90;;;;;;4898626;29;20502;-73
2023/04/26 01:24:49;;;;;;;1999.90;999.90;;;4.10;99.90;;;;;;4899617;29;20053;-72
2023/04/26 01:27:15;;;;;;;1999.90;999.90;;;5.60;99.90;;;;;;4899139;29;20116;-74
2023/04/26 01:29:41;;;;;;;1999.90;999.90;;;4.10;99.90;;;;;;4898748;29;20056;-73
2023/04/26 01:32:07;;;;;;;1999.90;999.90;;;5.20;99.90;;;;;;4898806;29;20137;-74
2023/04/26 01:34:33;;;;;;;1999.90;999.90;;;4.00;99.90;;;;;;4898228;29;20503;-73
2023/04/26 01:37:00;;;;;;;1999.90;999.90;;;3.40;1.00;;;;;;4896656;29;20517;-73
2023/04/26 01:39:26;;;;;;;1999.90;999.90;;;4.20;1.00;;;;;;4899547;29;20053;-73
2023/04/26 01:41:52;;;;;;;1999.90;999.90;;;4.80;99.90;;;;;;4898711;29;20059;-73
2023/04/26 01:44:18;;;;;;;1999.90;999.90;;;4.10;99.90;;;;;;4899415;29;20040;-73
2023/04/26 01:46:44;;;;;;;1999.90;999.90;;;4.40;99.90;;;;;;4882277;29;20394;-74
2023/04/26 01:49:10;;;;;;;1999.90;999.90;;;3.60;99.90;;;;;;4896838;29;20131;-73
2023/04/26 01:51:35;;;;;;;1999.90;999.90;;;5.50;1.00;;;;;;4899236;29;20060;-73
2023/04/26 01:54:01;;;;;;;1999.90;999.90;;;5.40;1.00;;;;;;4897791;29;20450;-72
2023/04/26 01:56:27;;;;;;;1999.90;999.90;;;5.20;1.00;;;;;;4899153;29;20054;-73
2023/04/26 01:58:55;;;;;;;1999.90;999.90;;;5.90;99.90;;;;;;4897326;29;20127;-73
2023/04/26 02:01:21;;;;;;;1999.90;999.90;;;3.80;99.90;;;;;;4899004;29;20458;-73
2023/04/26 02:03:48;;;;;;;1999.90;999.90;;;5.70;99.90;;;;;;4897668;29;20049;-73
2023/04/26 02:06:13;;;;;;;1999.90;999.90;;;4.40;99.90;;;;;;4897684;29;20057;-74
2023/04/26 02:08:39;;;;;;;1999.90;999.90;;;5.80;99.90;;;;;;4897841;29;20442;-73
2023/04/26 02:11:05;;;;;;;1999.90;999.90;;;4.50;99.90;;;;;;4898434;29;20414;-73
2023/04/26 02:13:31;;;;;;;1999.90;999.90;;;4.40;99.90;;;;;;4897675;29;20100;-72
2023/04/26 02:15:58;;;;;;;1999.90;999.90;;;5.20;99.90;;;;;;4897327;29;20060;-73
2023/04/26 02:18:24;;;;;;;1999.90;999.90;;;5.40;99.90;;;;;;4898558;29;20447;-73
2023/04/26 02:20:50;;;;;;;1999.90;999.90;;;4.90;99.90;;;;;;4898661;29;20078;-72
2023/04/26 02:23:15;;;;;;;1999.90;999.90;;;4.30;99.90;;;;;;4895873;29;20040;-73
2023/04/26 02:25:45;;;;;;;1999.90;999.90;;;6.00;99.90;;;;;;4887330;29;20136;-73
2023/04/26 02:28:11;;;;;;;1999.90;999.90;;;4.40;99.90;;;;;;4879081;29;20061;-73
2023/04/26 02:30:36;;;;;;;1999.90;999.90;;;4.20;99.90;;;;;;4879404;29;20057;-72
2023/04/26 02:33:02;;;;;;;1999.90;999.90;;;5.30;99.90;;;;;;4878135;29;20057;-73
2023/04/26 02:35:28;;;;;;;1999.90;999.90;;;4.10;99.90;;;;;;4892847;29;20053;-73
2023/04/26 02:37:54;;;;;;;1999.90;999.90;;;4.10;99.90;;;;;;4896972;29;20099;-78
2023/04/26 02:40:20;;;;;;;1999.90;999.90;;;4.20;99.90;;;;;;4898190;29;20535;-74
2023/04/26 02:42:47;;;;;;;1999.90;999.90;;;4.20;99.90;;;;;;4897074;29;20458;-74
2023/04/26 02:45:13;;;;;;;1999.90;999.90;;;6.00;99.90;;;;;;4897843;29;20048;-73
2023/04/26 02:47:40;;;;;;;1999.90;999.90;;;4.30;87.60;;;;;;4897645;29;20096;-73
2023/04/26 02:50:07;;;;;;;1999.90;999.90;;;4.30;37.10;;;;;;4897700;29;20056;-73
2023/04/26 02:52:33;;;;;;;1999.90;999.90;;;3.20;31.10;;;;;;4896271;29;20398;-73
2023/04/26 02:55:03;;;;;;;1999.90;999.90;;;3.00;14.50;;;;;;4897665;29;20049;-73
2023/04/26 02:57:29;;;;;;;1999.90;999.90;;;4.10;1.00;;;;;;4897606;29;20108;-73
2023/04/26 02:59:54;;;;;;;1999.90;999.90;;;4.60;1.00;;;;;;4897835;29;20045;-73
2023/04/26 03:02:20;;;;;;;1999.90;999.90;;;4.10;1.00;;;;;;4896714;29;20051;-74
2023/04/26 03:04:46;;;;;;;1999.90;999.90;;;5.20;4.80;;;;;;4897668;29;20053;-74
2023/04/26 03:07:12;;;;;;;1999.90;999.90;;;4.70;90.00;;;;;;4864386;29;20061;-73
2023/04/26 03:09:38;;;;;;;1999.90;999.90;;;5.50;60.10;;;;;;4897651;29;20044;-72
2023/04/26 03:12:07;;;;;;;1999.90;999.90;;;3.80;41.30;;;;;;4895816;29;20140;-73
2023/04/26 03:14:34;;;;;;;1999.90;999.90;;;4.30;20.90;;;;;;4881219;29;20103;-73
2023/04/26 03:17:01;;;;;;;1999.90;999.90;;;4.70;1.50;;;;;;4895866;29;20056;-72
2023/04/26 03:19:27;;;;;;;1999.90;999.90;;;5.60;1.00;;;;;;4897823;29;20044;-73
2023/04/26 03:21:53;;;;;;;1999.90;999.90;;;4.30;1.00;;;;;;4896526;29;20055;-74
2023/04/26 03:24:19;;;;;;;1999.90;999.90;;;4.30;1.10;;;;;;4896224;29;20059;-73
2023/04/26 03:26:45;;;;;;;1999.90;999.90;;;4.20;1.00;;;;;;4897086;29;20090;-72
2023/04/26 03:29:11;;;;;;;1999.90;999.90;;;5.90;8.50;;;;;;4895505;29;20490;-72
2023/04/26 03:31:37;;;;;;;1999.90;999.90;;;5.90;1.00;;;;;;4896438;29;20056;-73
2023/04/26 03:34:03;;;;;;;1999.90;999.90;;;;;;;;;;4896739;29;20477;-73
2023/04/26 03:36:29;;;;;;;1999.90;999.90;;;4.10;1.00;;;;;;4897251;29;20056;-73
2023/04/26 03:38:55;;;;;;;1999.90;999.90;;;4.40;1.00;;;;;;4896432;29;20123;-73
2023/04/26 03:41:21;;;;;;;1999.90;999.90;;;4.20;35.90;;;;;;4897107;29;20498;-73
2023/04/26 03:43:47;;;;;;;1999.90;999.90;;;4.30;28.60;;;;;;4896720;29;20048;-73
2023/04/26 03:46:13;;;;;;;1999.90;999.90;;;6.20;25.20;;;;;;4896914;29;20494;-72
2023/04/26 03:48:39;;;;;;;1999.90;999.90;;;5.90;1.00;;;;;;4895472;29;20075;-73
2023/04/26 03:51:05;;;;;;;1999.90;999.90;;;3.10;1.00;;;;;;4896877;29;20514;-73
2023/04/26 03:53:31;;;;;;;1999.90;999.90;;;5.00;1.00;;;;;;4896268;29;20056;-73
2023/04/26 03:55:57;;;;;;;1999.90;999.90;;;6.20;1.00;;;;;;4896955;29;20426;-72
2023/04/26 03:58:25;;;;;;;1999.90;999.90;;;6.10;1.00;;;;;;4895533;29;20059;-73
2023/04/26 04:00:51;;;;;;;1999.90;999.90;;;4.90;59.70;;;;;;4897268;29;20057;-73
2023/04/26 04:03:17;;;;;;;1999.90;999.90;;;;;;;;;;4896582;29;20100;-73
2023/04/26 04:05:42;;;;;;;1999.90;999.90;;;5.00;7.00;;;;;;4896871;29;20088;-73
2023/04/26 04:08:08;;;;;;;1982.07;778.33;;;5.00;99.90;;;;;;4895356;29;20088;-73
2023/04/26 04:10:35;;;;;;;1999.90;999.90;;;5.10;99.90;;;;;;4896788;29;20101;-73
2023/04/26 04:13:01;;;;;;;1999.90;999.90;;;5.20;1.00;;;;;;4897292;29;20506;-72
2023/04/26 04:15:27;;;;;;;1999.90;999.90;;;6.60;1.00;;;;;;4900515;29;20316;-73
2023/04/26 04:17:52;;;;;;;1999.90;999.90;;;5.40;1.00;;;;;;4900594;29;20043;-73
2023/04/26 04:20:20;;;;;;;1999.90;999.90;;;5.10;1.00;;;;;;4899501;29;20406;-73
2023/04/26 04:22:46;;;;;;;1999.90;999.90;;;4.90;1.00;;;;;;4899471;29;20056;-73
2023/04/26 04:25:12;;;;;;;1999.90;999.90;;;4.80;1.00;;;;;;4900297;29;20128;-73
2023/04/26 04:27:41;;;;;;;1999.90;999.90;;;6.10;1.00;;;;;;4900303;29;20112;-72
2023/04/26 04:30:08;;;;;;;1999.90;999.90;;;6.00;1.00;;;;;;4900184;29;20059;-73
2023/04/26 04:32:38;;;;;;;1999.90;999.90;;;4.50;1.00;;;;;;4899286;29;20053;-74
2023/04/26 04:35:04;;;;;;;1999.90;999.90;;;5.50;1.00;;;;;;4900518;29;20052;-73
2023/04/26 04:37:33;;;;;;;1999.90;999.90;;;4.40;1.00;;;;;;4898831;29;20067;-74
2023/04/26 04:39:59;;;;;;;1999.90;999.90;;;5.70;1.00;;;;;;4899883;29;20059;-73
2023/04/26 04:42:27;;;;;;;1999.90;999.90;;;3.90;1.00;;;;;;4899850;29;20056;-75
2023/04/26 04:44:53;;;;;;;1999.90;999.90;;;4.20;1.00;;;;;;4900455;29;20055;-71
2023/04/26 04:47:19;;;;;;;1999.90;999.90;;;4.30;99.90;;;;;;4898646;29;20131;-72
2023/04/26 04:49:44;;;;;;;1999.90;999.90;;;4.30;99.90;;;;;;4899871;29;20152;-73
2023/04/26 04:52:10;;;;;;;1999.90;999.90;;;3.80;99.90;;;;;;4898780;29;20455;-73
2023/04/26 04:54:36;;;;;;;1999.90;999.90;;;4.30;94.30;;;;;;4900241;29;20127;-72
2023/04/26 04:57:02;;;;;;;1999.90;999.90;;;5.00;99.90;;;;;;4899977;29;20131;-72
2023/04/26 04:59:28;;;;;;;1999.90;999.90;;;4.50;99.90;;;;;;4898831;29;20063;-72
2023/04/26 05:01:54;;;;;;;1999.90;999.90;;;5.80;92.40;;;;;;4899618;29;20044;-72
2023/04/26 05:04:20;;;;;;;1999.90;999.90;;;6.30;69.00;;;;;;4899520;29;20056;-73
2023/04/26 05:06:46;;;;;;;1999.90;999.90;;;8.00;32.90;;;;;;4899480;29;20048;-73
2023/04/26 05:09:12;;;;;;;1999.90;999.90;;;4.80;1.20;;;;;;4899272;29;20498;-72
2023/04/26 05:11:37;;;;;;;1999.90;999.90;;;4.70;1.00;;;;;;4899932;29;20088;-73
2023/04/26 05:14:03;;;;;;;1999.90;999.90;;;5.30;1.00;;;;;;4898752;29;20131;-73
2023/04/26 05:16:29;;;;;;;1999.90;999.90;;;4.70;2.40;;;;;;4899535;29;20067;-73
2023/04/26 05:18:54;;;;;;;1999.90;999.90;;;5.30;1.00;;;;;;4899648;29;20498;-72
2023/04/26 05:21:20;;;;;;;1999.90;999.90;;;4.60;1.00;;;;;;4898612;29;20049;-72
2023/04/26 05:23:46;;;;;;;1999.90;999.90;;;5.60;1.00;;;;;;4898332;29;20132;-72
2023/04/26 05:26:16;;;;;;;1999.90;999.90;;;4.50;1.00;;;;;;4898877;29;20084;-76
2023/04/26 05:28:42;;;;;;;1999.90;999.90;;;5.80;1.00;;;;;;4898234;29;20048;-72
2023/04/26 05:31:08;;;;;;;1999.90;999.90;;;4.40;1.00;;;;;;4899106;29;20111;-73
2023/04/26 05:33:34;;;;;;;1999.90;999.90;;;6.20;55.40;;;;;;4898990;29;20100;-72
2023/04/26 05:36:01;;;;;;;1999.90;999.90;;;5.80;99.90;;;;;;4899319;29;20048;-72
2023/04/26 05:38:27;;;;;;;1999.90;999.90;;;5.60;70.30;;;;;;4897694;29;20537;-72
2023/04/26 05:40:53;;;;;;;1999.90;999.90;;;4.30;90.50;;;;;;4898380;29;20088;-73
2023/04/26 05:43:18;;;;;;;1999.90;999.90;;;4.60;92.10;;;;;;4897901;29;20421;-73
2023/04/26 05:45:51;;;;;;;1999.90;999.90;;;4.60;80.80;;;;;;4899485;29;20053;-73
2023/04/26 05:48:17;;;;;;;1999.90;999.90;;;5.40;55.30;;;;;;4898294;29;20395;-72
2023/04/26 05:50:43;;;;;;;1999.90;999.90;;;6.00;34.10;;;;;;4899199;29;20060;-73
2023/04/26 05:53:08;;;;;;;1999.90;999.90;;;5.10;16.70;;;;;;4898138;29;20422;-72
2023/04/26 05:55:35;;;;;;;1999.90;999.90;;;7.10;41.50;;;;;;4897883;29;20049;-73
2023/04/26 05:58:01;;;;;;;1999.90;999.90;;;4.80;67.10;;;;;;4897919;29;20084;-72
2023/04/26 06:00:26;;;;;;;1999.90;999.90;;;5.10;80.00;;;;;;4882165;29;20532;-72
2023/04/26 06:02:52;;;;;;;1999.90;999.90;;;6.50;77.10;;;;;;4898763;29;20056;-73
2023/04/26 06:05:18;;;;;;;1999.90;999.90;;;5.50;20.60;;;;;;4898501;29;20067;-74
2023/04/26 06:07:45;;;;;;;1999.90;999.90;;;;;;;;;;4897903;29;20094;-74
2023/04/26 06:10:12;;;;;;;1999.90;999.90;;;5.70;1.00;;;;;;4898827;29;20052;-73
2023/04/26 06:12:38;;;;;;;1999.90;999.90;;;5.80;99.90;;;;;;4897368;29;20498;-73
2023/04/26 06:15:04;;;;;;;1999.90;999.90;;;6.40;99.90;;;;;;4897559;29;20056;-73
2023/04/26 06:17:30;;;;;;;1999.90;999.90;;;6.50;99.90;;;;;;4898183;29;20056;-73
2023/04/26 06:19:56;;;;;;;1999.90;999.90;;;6.40;99.90;;;;;;4898364;29;20048;-73
2023/04/26 06:22:21;;;;;;;1999.90;999.90;;;7.60;99.90;;;;;;4897330;29;20143;-74
2023/04/26 06:24:47;;;;;;;1999.90;999.90;;;6.70;99.90;;;;;;4894314;29;20045;-74
2023/04/26 06:27:13;;;;;;;1999.90;999.90;;;6.80;99.90;;;;;;4879412;29;20814;-73
2023/04/26 06:29:38;;;;;;;1999.90;999.90;;;6.80;99.90;;;;;;4909415;29;20426;-74
2023/04/26 06:32:04;;;;;;;1999.90;999.90;;;6.90;99.90;;;;;;4878302;29;20052;-73
2023/04/26 06:34:30;;;;;;;1999.90;999.90;;;7.00;99.90;;;;;;4884887;29;20055;-73
2023/04/26 06:36:56;;;;;;;1999.90;999.90;;;7.30;99.90;;;;;;4896365;29;20463;-74
2023/04/26 06:39:21;;;;;;;1999.90;999.90;;;7.30;99.90;;;;;;4898268;29;20044;-74
2023/04/26 06:41:47;;;;;;;1999.90;999.90;;;7.40;99.90;;;;;;4898049;29;20053;-77
2023/04/26 06:44:13;;;;;;;1999.90;999.90;;;7.20;99.90;;;;;;4898574;29;20045;-74
2023/04/26 06:46:39;;;;;;;1999.90;999.90;;;7.30;99.90;;;;;;4897340;29;20049;-73
2023/04/26 06:49:04;;;;;;;1999.90;999.90;;;7.40;99.90;;;;;;4897404;29;20450;-73
2023/04/26 06:51:30;;;;;;;1999.90;999.90;;;7.60;99.90;;;;;;4897673;29;20044;-74
2023/04/26 06:53:57;;;;;;;1644.82;756.22;;;7.80;99.90;;;;;;4896018;29;20500;-74
2023/04/26 06:56:23;;;;;;;1999.90;999.90;;;8.00;99.90;;;;;;4897754;29;20108;-74
2023/04/26 06:59:04;;;;;;;1999.90;999.90;;;8.10;99.90;;;;;;4897690;29;20453;-73
2023/04/26 07:01:32;;;;;;;1999.90;574.55;;;8.50;99.90;;;;;;4897479;29;20057;-74
2023/04/26 07:04:01;;;;;;;1999.90;999.90;;;8.20;99.90;;;;;;4897728;29;20071;-74
2023/04/26 07:06:27;;;;;;;1999.90;999.90;;;8.30;99.90;;;;;;4896456;29;20490;-74
2023/04/26 07:08:53;;;;;;;1999.90;384.48;;;8.40;99.90;;;;;;4896721;29;20051;-74
2023/04/26 07:11:19;;;;;;;1999.90;999.90;;;8.40;99.90;;;;;;4896830;29;20048;-75
2023/04/26 07:13:45;;;;;;;1999.90;999.90;;;8.70;99.90;;;;;;4880428;29;20091;-74
2023/04/26 07:16:11;;;;;;;1999.90;999.90;;;8.50;99.90;;;;;;4896573;29;20053;-74
2023/04/26 07:18:41;;;;;;;1999.90;999.90;;;7.50;99.90;;;;;;4895975;29;20128;-73
2023/04/26 07:21:07;;;;;;;1999.90;999.90;;;8.70;99.90;;;;;;4897543;29;20100;-73
2023/04/26 07:23:33;;;;;;;1999.90;999.90;;;8.80;99.90;;;;;;4895028;29;20040;-74
2023/04/26 07:26:00;;;;;;;1999.90;999.90;;;9.60;99.90;;;;;;4882772;29;20059;-74
2023/04/26 07:28:26;;;;;;;1999.90;999.90;;;12.20;97.70;;;;;;4877056;29;20524;-75
2023/04/26 07:30:52;;;;;;;1999.90;999.90;;;11.70;78.30;;;;;;4877457;29;20453;-74
2023/04/26 07:33:18;;;;;;;1999.90;999.90;;;12.40;79.70;;;;;;4878958;29;20100;-74
2023/04/26 07:35:44;;;;;;;1999.90;999.90;;;13.00;62.60;;;;;;4893202;29;20056;-74
2023/04/26 07:38:10;;;;;;;1999.90;999.90;;;13.70;45.10;;;;;;4896658;29;20044;-74
2023/04/26 07:40:35;;;;;;;1999.90;999.90;;;14.60;18.80;;;;;;4896112;29;20047;-74
2023/04/26 07:43:01;;;;;;;1999.90;999.90;;;15.10;3.00;;;;;;4896985;29;20446;-74
2023/04/26 07:45:27;;;;;;;1999.90;999.90;;;15.10;1.00;;;;;;4895590;29;20490;-77
2023/04/26 07:47:53;;;;;;;1999.90;781.20;;;15.40;3.10;;;;;;4895769;29;20085;-73
2023/04/26 07:50:19;;;;;;;1999.90;862.22;;;15.70;1.00;;;;;;4897416;29;20072;-74
2023/04/26 07:52:45;;;;;;;1999.90;830.08;;;16.00;1.00;;;;;;4895852;29;20048;-74
2023/04/26 07:55:11;;;;;;;1999.90;607.35;;;15.80;1.00;;;;;;4897269;29;20049;-74
2023/04/26 07:57:37;;;;;;;1999.90;999.90;;;15.30;1.00;;;;;;4895482;29;20056;-74
2023/04/26 08:00:11;;;;;;;1999.90;731.35;;;15.00;1.00;;;;;;4896780;29;20410;-75
2023/04/26 08:02:36;;;;;;;1999.90;900.65;;;14.70;1.00;;;;;;4895405;29;20501;-73
2023/04/26 08:05:02;;;;;;;1999.90;972.35;;;14.20;1.00;;;;;;4896057;29;20045;-74
2023/04/26 08:07:28;;;;;;;1999.90;882.40;;;14.00;1.00;;;;;;4896058;29;20048;-74
2023/04/26 08:09:54;;;;;;;1999.90;730.95;;;13.80;1.00;;;;;;4896028;29;20056;-74
2023/04/26 08:12:19;;;;;;;1999.90;999.90;;;13.80;1.00;;;;;;4895518;29;20111;-74
2023/04/26 08:14:45;;;;;;;1999.90;999.90;;;13.90;1.00;;;;;;4896663;29;20053;-74
2023/04/26 08:17:11;;;;;;;1999.90;633.45;;;14.60;1.00;;;;;;4895885;29;20204;-74
2023/04/26 08:19:37;;;;;;;1999.90;999.90;;;15.30;1.00;;;;;;4896781;29;20051;-74
2023/04/26 08:22:03;;;;;;;1999.90;999.90;;;15.90;1.00;;;;;;4895798;29;20422;-74
2023/04/26 08:24:28;;;;;;;1999.90;999.90;;;16.30;1.00;;;;;;4894155;29;20056;-75
2023/04/26 08:26:54;;;;;;;1999.90;999.90;;;16.80;1.00;;;;;;4877845;29;20487;-73
2023/04/26 08:29:22;;;;;;;1999.90;999.90;;;16.80;1.00;;;;;;4878248;29;20152;-75
2023/04/26 08:31:48;;;;;;;1999.90;999.90;;;16.60;1.00;;;;;;4877872;29;20045;-74
2023/04/26 08:34:13;;;;;;;1999.90;999.90;;;16.30;1.00;;;;;;4880654;29;20493;-74
2023/04/26 08:36:42;;;;;;;1999.90;999.90;;;16.00;1.00;;;;;;4896328;29;20053;-75
2023/04/26 08:39:08;;;;;;;1999.90;999.90;;;15.30;1.00;;;;;;4896169;29;20041;-74
2023/04/26 08:41:45;;;;;;;1999.90;980.17;;;15.30;1.00;;;;;;4896459;29;20402;-74
2023/04/26 08:44:11;;;;;;;1999.90;999.90;;;15.30;1.00;;;;;;4897021;29;20053;-73
2023/04/26 08:46:50;;;;;;;1999.90;958.28;;;15.30;1.00;;;;;;4896109;29;20123;-74
2023/04/26 08:49:30;;;;;;;1999.90;999.90;;;15.30;1.00;;;;;;4896543;29;20063;-75
2023/04/26 08:51:57;;;;;;;1999.90;913.58;;;15.50;1.00;;;;;;4895184;29;20063;-76
2023/04/26 08:54:24;;;;;;;1999.90;958.38;;;16.00;1.00;;;;;;4896565;29;20059;-75
2023/04/26 08:56:52;;;;;;;1999.90;698.40;;;16.60;1.00;;;;;;4896076;29;20120;-74
2023/04/26 08:59:19;;;;;;;1999.90;701.92;;;17.20;1.00;;;;;;4897010;29;20048;-74
2023/04/26 09:01:45;;;;;;;1999.90;999.90;;;17.50;1.00;;;;;;4898660;29;20413;-74
2023/04/26 09:04:11;;;;;;;1999.90;999.90;;;17.60;1.00;;;;;;4900087;29;20052;-75
2023/04/26 09:06:38;;;;;;;1999.90;999.90;;;17.40;1.00;;;;;;4883264;29;20108;-75
2023/04/26 09:09:07;;;;;;;1999.90;999.90;;;17.40;1.00;;;;;;4898749;29;20055;-74
2023/04/26 09:12:00;;;;;;;1682.38;767.55;;;17.60;1.00;;;;;;4899953;29;20131;-75
2023/04/26 09:14:26;;;;;;;1999.90;999.90;;;17.20;1.00;;;;;;4898062;29;20065;-74
2023/04/26 09:16:53;;;;;;;1999.90;999.90;;;16.90;1.00;;;;;;4899210;29;20056;-74
2023/04/26 09:19:41;;;;;;;1999.90;517.58;;;16.20;1.00;;;;;;4900161;29;20459;-74
2023/04/26 09:22:07;;;;;;;1999.90;800.78;;;15.40;1.00;;;;;;4898754;29;20052;-74
2023/04/26 09:24:53;;;;;;;1999.90;744.60;;;14.70;1.00;;;;;;4897245;29;20053;-74
2023/04/26 09:27:20;;;;;;;1999.90;999.90;;;14.20;1.00;;;;;;4880369;29;20061;-74
2023/04/26 09:30:17;;;;;;;1999.90;981.95;;;13.50;1.00;;;;;;4880427;29;20055;-74
2023/04/26 09:32:46;;;;;;;1999.90;999.90;;;13.00;1.00;;;;;;4880389;29;20103;-74
2023/04/26 09:35:42;;;;;;;1999.90;999.90;;;12.40;1.00;;;;;;4890593;29;20405;-74
2023/04/26 09:38:07;;;;;;;1999.90;740.75;;;12.10;1.00;;;;;;4897177;29;20060;-74
2023/04/26 09:40:35;;;;;;;1999.90;999.90;;;11.70;1.00;;;;;;4898543;29;20455;-74
2023/04/26 09:43:10;;;;;;;1999.90;999.90;;;11.60;1.00;;;;;;4898818;29;20132;-73
2023/04/26 09:45:50;;;;;;;1999.90;682.75;;;11.50;1.00;;;;;;4899555;29;20044;-73
2023/04/26 09:48:21;;;;;;;1999.90;999.90;;;11.50;1.00;;;;;;4898533;29;20060;-73
2023/04/26 09:50:51;;;;;;;1999.90;999.90;;;11.60;1.00;;;;;;4898909;29;20414;-73
2023/04/26 09:53:33;;;;;;;1999.90;999.90;;;11.70;1.00;;;;;;4897026;29;20056;-73
2023/04/26 09:56:13;;;;;;;1999.90;907.70;;;11.90;1.00;;;;;;4898812;29;20056;-73
2023/04/26 09:58:57;;;;;;;1999.90;999.90;;;12.20;1.00;;;;;;4898987;29;20052;-73
2023/04/26 10:01:25;;;;;;;1999.90;650.83;;;12.50;1.00;;;;;;4897799;29;20056;-75
2023/04/26 10:03:51;;;;;;;;;;;12.70;1.00;;;;;;4898970;29;20052;-74
2023/04/26 10:06:17;;;;;;;1999.90;999.90;;;12.90;1.00;;;;;;4897686;29;19930;-75
2023/04/26 10:08:44;;;;;;;1999.90;999.90;;;12.90;1.00;;;;;;4897392;29;20055;-73
2023/04/26 10:11:11;;;;;;;1999.90;999.90;;;12.90;1.00;;;;;;4898962;29;20052;-73
2023/04/26 10:13:37;;;;;;;1999.90;999.90;;;12.80;1.00;;;;;;4898423;29;20281;-73
2023/04/26 10:16:05;;;;;;;1999.90;808.70;;;12.60;1.00;;;;;;4898544;29;20056;-73
2023/04/26 10:18:31;;;;;;;1999.90;913.88;;;12.60;1.00;;;;;;4898450;29;20051;-73
2023/04/26 10:21:01;;;;;;;1999.90;774.35;;;12.50;1.00;;;;;;4898062;29;20044;-73
2023/04/26 10:23:27;;;;;;;1999.90;920.45;;;12.40;1.00;;;;;;4880642;29;20413;-73
2023/04/26 10:25:54;;;;;;;1999.90;999.90;;;12.30;1.00;;;;;;4884354;29;20068;-73
2023/04/26 10:28:39;;;;;;;1999.90;999.90;;;12.50;1.00;;;;;;4879668;29;20052;-73
2023/04/26 10:31:06;;;;;;;1999.90;999.90;;;12.90;1.00;;;;;;4879435;29;20135;-74
2023/04/26 10:33:32;;;;;;;1999.90;999.90;;;13.20;1.00;;;;;;4879638;29;20109;-74
2023/04/26 10:36:04;;;;;;;1999.90;999.90;;;13.50;1.00;;;;;;4895074;29;20044;-73
2023/04/26 10:38:30;;;;;;;1999.90;737.70;;;13.80;1.00;;;;;;4896365;29;20117;-74
2023/04/26 10:41:31;;;;;;;1999.90;999.90;;;14.00;1.00;;;;;;4897694;29;20075;-73
2023/04/26 10:44:17;;;;;;;1999.90;999.90;;;14.00;1.00;;;;;;4897687;29;20060;-73
2023/04/26 10:46:50;;;;;;;1999.90;999.90;;;14.10;1.00;;;;;;4898063;29;20048;-73
2023/04/26 10:49:17;;;;;;;1999.90;999.90;;;14.20;1.00;;;;;;4896723;29;20104;-73
2023/04/26 10:52:12;;;;;;;1999.90;999.90;;;14.20;1.00;;;;;;4897474;29;20096;-76
2023/04/26 10:55:05;;;;;;;1999.90;999.90;;;14.10;1.00;;;;;;4898187;29;20075;-73
2023/04/26 10:57:55;;;;;;;1999.90;999.90;;;14.10;1.00;;;;;;4895098;29;20057;-73
2023/04/26 11:00:28;;;;;;;1999.90;999.90;;;13.90;1.00;;;;;;4898222;29;20052;-73
2023/04/26 11:03:05;;;;;;;1999.90;999.90;;;13.80;1.00;;;;;;4897256;29;20120;-75
2023/04/26 11:05:38;;;;;;;1999.90;999.90;;;13.80;1.00;;;;;;4897746;29;20057;-73
2023/04/26 11:08:13;;;;;;;1999.90;999.90;;;13.80;1.00;;;;;;4896399;29;20056;-73
2023/04/26 11:10:39;;;;;;;1999.90;999.90;;;13.80;1.00;;;;;;4897846;29;20084;-73
2023/04/26 11:13:06;;;;;;;1999.90;999.90;;;13.80;1.00;;;;;;4897211;29;20059;-73
2023/04/26 11:15:32;;;;;;;1999.90;999.90;;;14.10;1.00;;;;;;4897830;29;20455;-73
2023/04/26 11:18:01;;;;;;;1999.90;999.90;;;14.30;1.00;;;;;;4897033;29;20049;-73
2023/04/26 11:20:33;;;;;;;1999.90;999.90;;;14.50;1.00;;;;;;4898068;29;20095;-74
2023/04/26 11:23:00;;;;;;;1999.90;999.90;;;14.80;1.00;;;;;;4894532;29;20061;-74
2023/04/26 11:25:29;;;;;;;1999.90;999.90;;;15.30;1.00;;;;;;4888346;29;20048;-74
2023/04/26 11:28:02;;;;;;;1999.90;999.90;;;15.80;1.00;;;;;;4878096;29;20771;-73
2023/04/26 11:30:29;;;;;;;1999.90;891.70;;;16.30;1.00;;;;;;4878001;29;20088;-74
2023/04/26 11:32:55;;;;;;;1999.90;954.50;;;16.50;1.00;;;;;;4877944;29;20579;-74
2023/04/26 11:35:22;;;;;;;1999.90;802.65;;;16.80;1.00;;;;;;4890678;29;20049;-73
2023/04/26 11:37:50;;;;;;;1999.90;999.90;;;16.70;1.00;;;;;;4896083;29;20495;-72
2023/04/26 11:40:16;;;;;;;1999.90;999.90;;;16.30;1.00;;;;;;4897168;29;20421;-72
2023/04/26 11:42:43;;;;;;;1999.90;999.90;;;15.70;1.00;;;;;;4896912;29;20506;-72
2023/04/26 11:45:10;;;;;;;1999.90;999.90;;;15.00;1.00;;;;;;4896945;29;20048;-73
2023/04/26 11:47:36;;;;;;;1999.90;999.90;;;14.30;1.00;;;;;;4897057;29;20134;-72
2023/04/26 11:50:02;;;;;;;1999.90;999.90;;;13.80;1.00;;;;;;4879930;29;20056;-72
2023/04/26 11:52:28;;;;;;;1999.90;999.90;;;13.40;1.00;;;;;;4895175;29;20053;-72
2023/04/26 11:55:05;;;;;;;1999.90;777.53;;;13.00;1.00;;;;;;4896852;29;20083;-72
2023/04/26 11:57:32;;;;;;;1999.90;514.47;;;12.60;1.00;;;;;;4896709;29;20048;-72
2023/04/26 12:00:13;;;;;;;1999.90;999.90;;;12.50;1.00;;;;;;4896896;29;20053;-72
2023/04/26 12:02:47;;;;;;;1999.90;999.90;;;12.40;1.00;;;;;;4896803;29;20132;-73
2023/04/26 12:05:27;;;;;;;1999.90;999.90;;;12.40;1.00;;;;;;4897166;29;20510;-73
2023/04/26 12:07:55;;;;;;;1999.90;999.90;;;12.40;1.00;;;;;;4895649;29;20493;-73
2023/04/26 12:10:21;;;;;;;1999.90;999.90;;;12.40;1.00;;;;;;4896009;29;20494;-75
2023/04/26 12:12:49;;;;;;;1999.90;999.90;;;12.50;1.00;;;;;;4896747;29;20068;-78
2023/04/26 12:15:21;;;;;;;1999.90;999.90;;;12.60;1.00;;;;;;4895977;29;20044;-72